Time;durP1;ratioP1;P1;durP2;ratioP2;P2;SDS_P1;SDS_P2;PMS_P1;PMS_P2;Temp;Humidity;BMP_temperature;BMP_pressure;BME280_temperature;BME280_humidity;BME280_pressure;Samples;Min_cycle;Max_cycle;Signal;HPM_P1;HPM_P2
2021/12/26 00:01:52;;;;;;;16.57;14.33;;;;;;;3.71;100.00;97105.06;5078269;28;20243;-73
2021/12/26 00:04:19;;;;;;;16.63;13.70;;;;;;;3.60;100.00;97109.09;5078681;28;20212;-71
2021/12/26 00:06:46;;;;;;;15.43;13.00;;;;;;;3.62;100.00;97103.63;5077758;28;20630;-72
2021/12/26 00:09:12;;;;;;;14.00;12.50;;;;;;;3.65;100.00;97105.84;5078082;28;20197;-73
2021/12/26 00:11:38;;;;;;;14.53;12.83;;;;;;;3.43;100.00;97109.66;5077976;28;20280;-71
2021/12/26 00:14:06;;;;;;;13.43;12.03;;;;;;;3.43;100.00;97109.66;5077638;28;20210;-71
2021/12/26 00:16:32;;;;;;;15.30;12.77;;;;;;;3.44;100.00;97112.06;5077859;28;20311;-71
2021/12/26 00:18:59;;;;;;;13.90;12.57;;;;;;;3.52;100.00;97111.88;5077897;28;20204;-71
2021/12/26 00:21:25;;;;;;;14.60;12.33;;;;;;;3.53;100.00;97107.47;5076966;28;20204;-71
2021/12/26 00:23:53;;;;;;;14.10;12.60;;;;;;;3.50;100.00;97107.84;5077692;28;20287;-71
2021/12/26 00:26:19;;;;;;;13.43;12.03;;;;;;;3.53;100.00;97105.63;5077699;28;20303;-71
2021/12/26 00:28:46;;;;;;;14.13;12.07;;;;;;;3.61;100.00;97100.19;5077328;28;20228;-71
2021/12/26 00:31:16;;;;;;;13.23;11.17;;;;;;;3.69;100.00;97107.06;5077672;28;20232;-71
2021/12/26 00:33:42;;;;;;;12.37;11.03;;;;;;;3.53;100.00;97105.63;5077565;28;20189;-71
2021/12/26 00:36:09;;;;;;;12.03;10.77;;;;;;;3.61;100.00;97110.69;5077512;28;20243;-71
2021/12/26 00:38:35;;;;;;;12.07;10.77;;;;;;;3.64;100.00;97112.13;5077459;28;20186;-71
2021/12/26 00:41:02;;;;;;;14.13;11.57;;;;;;;3.60;100.00;97113.53;5077290;28;20219;-71
2021/12/26 00:43:29;;;;;;;12.77;11.47;;;;;;;3.51;100.00;97112.09;5077093;28;20204;-71
2021/12/26 00:45:55;;;;;;;12.97;11.50;;;;;;;3.51;100.00;97106.81;5076939;28;20232;-68
2021/12/26 00:48:22;;;;;;;12.50;11.10;;;;;;;3.71;100.00;97105.06;5077219;28;20519;-68
2021/12/26 00:50:49;;;;;;;12.87;11.50;;;;;;;3.66;100.00;97107.50;5077169;28;20189;-68
2021/12/26 00:53:15;;;;;;;12.23;10.93;;;;;;;3.61;100.00;97099.41;5076872;28;20576;-73
2021/12/26 00:55:42;;;;;;;12.80;11.50;;;;;;;3.57;100.00;97098.97;5076993;28;20227;-73
2021/12/26 00:58:09;;;;;;;13.03;11.73;;;;;;;3.64;100.00;97105.06;5076836;28;20200;-72
2021/12/26 01:00:42;;;;;;;14.23;12.07;;;;;;;3.69;100.00;97092.13;5077099;28;20212;-72
2021/12/26 01:03:11;;;;;;;15.23;12.20;;;;;;;3.59;100.00;97101.41;5076768;28;20584;-73
2021/12/26 01:05:40;;;;;;;16.00;13.30;;;;;;;3.58;100.00;97099.78;5076631;28;20651;-72
2021/12/26 01:08:09;;;;;;;14.60;12.97;;;;;;;3.63;100.00;97095.56;5076851;28;20247;-72
2021/12/26 01:11:06;;;;;;;14.97;12.43;;;;;;;3.64;100.00;97104.25;5076933;28;20254;-72
2021/12/26 01:13:35;;;;;;;15.23;13.17;;;;;;;3.57;100.00;97106.06;5075784;28;20256;-72
2021/12/26 01:16:05;;;;;;;15.90;14.20;;;;;;;3.53;100.00;97107.47;5076819;28;20311;-73
2021/12/26 01:18:35;;;;;;;16.50;13.93;;;;;;;3.52;100.00;97106.63;5076852;28;20196;-73
2021/12/26 01:21:15;;;;;;;17.50;13.90;;;;;;;3.55;100.00;97108.88;5076813;28;20195;-73
2021/12/26 01:23:43;;;;;;;18.47;14.40;;;;;;;3.55;100.00;97105.44;5076805;28;20220;-73
2021/12/26 01:26:09;;;;;;;19.27;15.87;;;;;;;3.57;100.00;97103.44;5076339;28;20220;-72
2021/12/26 01:28:35;;;;;;;19.70;16.10;;;;;;;3.53;100.00;97103.00;5076578;28;20224;-73
2021/12/26 01:31:02;;;;;;;19.47;16.17;;;;;;;3.57;100.00;97113.94;5076366;28;20498;-72
2021/12/26 01:33:29;;;;;;;15.50;13.87;;;;;;;3.71;100.00;97107.72;5076194;28;20204;-72
2021/12/26 01:35:56;;;;;;;18.97;15.87;;;;;;;3.62;100.00;97108.91;5076796;28;20224;-73
2021/12/26 01:38:23;;;;;;;18.80;16.10;;;;;;;3.61;100.00;97115.16;5076536;28;20196;-73
2021/12/26 01:40:55;;;;;;;20.43;15.60;;;;;;;3.53;100.00;97115.34;5076266;28;20196;-73
2021/12/26 01:43:26;;;;;;;17.73;15.27;;;;;;;3.54;100.00;97109.88;5076123;28;20275;-72
2021/12/26 01:45:54;;;;;;;20.33;16.00;;;;;;;3.56;100.00;97112.28;5076341;28;20227;-73
2021/12/26 01:48:22;;;;;;;17.10;14.53;;;;;;;3.58;100.00;97115.56;5076007;28;20217;-73
2021/12/26 01:50:51;;;;;;;17.00;15.20;;;;;;;3.57;100.00;97108.69;5076358;28;20200;-72
2021/12/26 01:53:19;;;;;;;17.00;14.27;;;;;;;3.62;100.00;97114.16;5076256;28;20204;-73
2021/12/26 01:55:47;;;;;;;17.23;14.77;;;;;;;3.60;100.00;97114.34;5076236;28;20227;-73
2021/12/26 01:58:15;;;;;;;16.03;13.77;;;;;;;3.57;100.00;97114.72;5075954;28;20530;-73
2021/12/26 02:00:47;;;;;;;14.93;13.33;;;;;;;3.55;100.00;97115.94;5075946;28;20626;-73
2021/12/26 02:03:14;;;;;;;17.03;14.57;;;;;;;3.48;100.00;97115.91;5075994;28;20584;-69
2021/12/26 02:05:40;;;;;;;15.43;13.80;;;;;;;3.54;100.00;97123.03;5076153;28;20217;-69
2021/12/26 02:08:08;;;;;;;15.80;14.03;;;;;;;3.45;100.00;97126.00;5076103;28;20220;-69
2021/12/26 02:10:35;;;;;;;15.47;13.80;;;;;;;3.51;100.00;97114.72;5076477;28;20201;-71
2021/12/26 02:13:02;;;;;;;15.47;13.73;;;;;;;3.44;100.00;97122.56;5076131;28;20200;-71
2021/12/26 02:15:28;;;;;;;15.30;13.30;;;;;;;3.55;100.00;97114.13;5076028;28;20220;-71
2021/12/26 02:17:55;;;;;;;17.47;14.53;;;;;;;3.51;100.00;97117.34;5076107;28;20204;-71
2021/12/26 02:20:37;;;;;;;18.23;14.33;;;;;;;3.54;100.00;97111.69;5076117;28;20201;-72
2021/12/26 02:23:11;;;;;;;15.67;14.03;;;;;;;3.55;100.00;97119.38;5076090;28;20197;-71
2021/12/26 02:28:22;;;;;;;16.53;14.17;;;;;;;3.53;100.00;97104.81;5076038;28;20282;-71
2021/12/26 02:30:49;;;;;;;16.00;13.67;;;;;;;3.56;100.00;97105.22;5075981;28;20207;-69
2021/12/26 02:33:18;;;;;;;17.17;14.17;;;;;;;3.61;100.00;97109.91;5075920;28;20205;-68
2021/12/26 02:35:45;;;;;;;16.03;14.33;;;;;;;3.52;100.00;97109.25;5075524;28;20643;-69
2021/12/26 02:38:13;;;;;;;15.93;14.13;;;;;;;3.64;100.00;97114.75;5075906;28;20200;-68
2021/12/26 02:40:42;;;;;;;15.97;14.27;;;;;;;3.54;100.00;97120.41;5075766;28;20211;-69
2021/12/26 02:43:12;;;;;;;17.40;14.53;;;;;;;3.43;100.00;97112.28;5076322;28;20275;-69
2021/12/26 02:45:39;;;;;;;15.23;13.47;;;;;;;3.39;100.00;97116.31;5077120;28;20217;-69
2021/12/26 02:48:08;;;;;;;18.17;15.33;;;;;;;3.42;100.00;97106.19;5079121;28;20217;-68
2021/12/26 02:50:35;;;;;;;17.03;14.80;;;;;;;3.39;100.00;97108.44;5079147;28;20612;-69
2021/12/26 02:53:06;;;;;;;18.33;14.43;;;;;;;3.36;100.00;97112.25;5079381;28;20227;-69
2021/12/26 02:55:34;;;;;;;19.17;15.70;;;;;;;3.43;100.00;97107.03;5079046;28;20235;-73
2021/12/26 02:58:04;;;;;;;19.97;15.80;;;;;;;3.48;100.00;97104.63;5079332;28;20188;-73
2021/12/26 03:00:40;;;;;;;18.10;14.60;;;;;;;3.38;100.00;97101.53;5079336;28;20189;-72
2021/12/26 03:03:07;;;;;;;17.53;14.53;;;;;;;3.49;100.00;97111.47;5078967;28;20640;-72
2021/12/26 03:05:39;;;;;;;19.77;15.97;;;;;;;3.43;100.00;97101.78;5079136;28;20227;-71
2021/12/26 03:08:07;;;;;;;21.90;15.90;;;;;;;3.42;100.00;97105.38;5079077;28;20220;-71
2021/12/26 03:10:35;;;;;;;19.50;15.30;;;;;;;3.48;100.00;97104.63;5079067;28;20208;-71
2021/12/26 03:13:05;;;;;;;20.23;16.23;;;;;;;3.45;100.00;97113.69;5079086;28;20189;-71
2021/12/26 03:15:33;;;;;;;19.33;15.70;;;;;;;3.31;100.00;97109.41;5078992;28;20221;-72
2021/12/26 03:18:01;;;;;;;21.33;17.13;;;;;;;3.36;100.00;97111.44;5078980;28;20203;-73
2021/12/26 03:20:31;;;;;;;19.97;16.70;;;;;;;3.44;100.00;97113.91;5078972;28;20215;-73
2021/12/26 03:23:00;;;;;;;22.10;18.03;;;;;;;3.41;100.00;97117.72;5078639;28;20188;-72
2021/12/26 03:25:28;;;;;;;21.37;16.53;;;;;;;3.57;100.00;97116.56;5079276;28;20536;-73
2021/12/26 03:27:56;;;;;;;18.70;15.97;;;;;;;3.48;100.00;97120.38;5079400;28;20213;-73
2021/12/26 03:30:25;;;;;;;21.87;16.30;;;;;;;3.69;100.00;97118.41;5078856;28;20193;-73
2021/12/26 03:32:52;;;;;;;20.73;16.13;;;;;;;3.58;100.00;97121.63;5078749;28;20207;-73
2021/12/26 03:35:20;;;;;;;20.93;16.20;;;;;;;3.52;100.00;97121.59;5078700;28;20225;-72
2021/12/26 03:37:46;;;;;;;23.23;16.90;;;;;;;3.51;100.00;97117.34;5078675;28;20200;-71
2021/12/26 03:40:13;;;;;;;19.73;16.47;;;;;;;3.49;100.00;97128.06;5078630;28;20201;-71
2021/12/26 03:42:40;;;;;;;19.80;16.87;;;;;;;3.53;100.00;97121.38;5078199;28;20204;-71
2021/12/26 03:45:08;;;;;;;20.90;16.83;;;;;;;3.36;100.00;97121.94;5078163;28;20221;-71
2021/12/26 03:47:36;;;;;;;25.63;19.07;;;;;;;3.32;100.00;97118.91;5078410;28;20200;-69
2021/12/26 03:50:05;;;;;;;25.10;18.67;;;;;;;3.40;100.00;97117.91;5078454;28;20192;-68
2021/12/26 03:52:31;;;;;;;23.67;18.20;;;;;;;3.31;100.00;97114.66;5078361;28;20189;-70
2021/12/26 03:54:58;;;;;;;22.83;17.73;;;;;;;3.44;100.00;97122.56;5078548;28;20225;-70
2021/12/26 03:57:24;;;;;;;28.30;17.90;;;;;;;3.26;100.00;97109.16;5078127;28;20196;-71
2021/12/26 03:59:51;;;;;;;24.63;18.90;;;;;;;3.29;100.00;97119.28;5078302;28;20192;-69
2021/12/26 04:02:18;;;;;;;23.83;18.87;;;;;;;3.34;100.00;97118.72;5078233;28;20184;-69
2021/12/26 04:04:45;;;;;;;22.80;18.10;;;;;;;3.40;100.00;97117.91;5078095;28;20203;-69
2021/12/26 04:07:12;;;;;;;27.13;19.90;;;;;;;3.41;100.00;97116.91;5078029;28;20208;-68
2021/12/26 04:09:40;;;;;;;24.07;18.27;;;;;;;3.40;100.00;97125.81;5077938;28;20217;-69
2021/12/26 04:12:07;;;;;;;21.73;18.23;;;;;;;3.41;100.00;97120.34;5077972;28;20505;-69
2021/12/26 04:14:33;;;;;;;22.27;16.90;;;;;;;3.58;100.00;97116.38;5077570;28;20205;-70
2021/12/26 04:16:59;;;;;;;21.73;17.90;;;;;;;3.54;100.00;97114.31;5077869;28;20197;-70
2021/12/26 04:19:26;;;;;;;22.57;18.20;;;;;;;3.50;100.00;97110.47;5077804;28;20200;-70
2021/12/26 04:21:52;;;;;;;23.20;18.17;;;;;;;3.53;100.00;97115.34;5077477;28;20604;-70
2021/12/26 04:24:19;;;;;;;25.70;18.57;;;;;;;3.50;100.00;97113.09;5077676;28;20212;-70
2021/12/26 04:26:45;;;;;;;23.00;18.07;;;;;;;3.44;100.00;97116.53;5077306;28;20232;-71
2021/12/26 04:29:12;;;;;;;24.27;18.77;;;;;;;3.56;100.00;97117.56;5077187;28;20216;-71
2021/12/26 04:31:38;;;;;;;22.13;17.83;;;;;;;3.49;100.00;97117.56;5077257;28;20503;-71
2021/12/26 04:34:05;;;;;;;25.10;18.47;;;;;;;3.71;100.00;97110.34;5078022;28;20201;-68
2021/12/26 04:36:32;;;;;;;22.80;17.17;;;;;;;3.77;100.00;97115.59;5077378;28;20225;-68
2021/12/26 04:38:58;;;;;;;24.30;19.23;;;;;;;3.50;100.00;97124.44;5077420;28;20201;-71
2021/12/26 04:41:25;;;;;;;26.43;19.47;;;;;;;3.51;100.00;97114.72;5076985;28;20216;-72
2021/12/26 04:43:51;;;;;;;24.80;19.73;;;;;;;3.52;100.00;97117.16;5077292;28;20196;-71
2021/12/26 04:46:18;;;;;;;26.10;18.43;;;;;;;3.56;100.00;97113.13;5077107;28;20220;-73
2021/12/26 04:48:45;;;;;;;23.47;17.73;;;;;;;3.60;100.00;97111.72;5077127;28;20228;-71
2021/12/26 04:51:13;;;;;;;23.17;19.17;;;;;;;3.52;100.00;97116.34;5076847;28;20504;-72
2021/12/26 04:53:41;;;;;;;24.53;18.70;;;;;;;3.53;100.00;97112.72;5077568;28;20201;-71
2021/12/26 04:56:08;;;;;;;23.03;18.63;;;;;;;3.53;100.00;97110.88;5077086;28;20224;-71
2021/12/26 04:58:35;;;;;;;25.47;19.27;;;;;;;3.53;100.00;97125.84;5077114;28;20196;-71
2021/12/26 05:01:03;;;;;;;26.87;19.90;;;;;;;3.59;100.00;97117.16;5076756;28;20499;-73
2021/12/26 05:03:30;;;;;;;22.70;18.33;;;;;;;3.53;100.00;97117.97;5076997;28;20207;-72
2021/12/26 05:05:57;;;;;;;22.83;18.67;;;;;;;3.68;100.00;97121.22;5076698;28;20227;-73
2021/12/26 05:08:23;;;;;;;26.80;18.30;;;;;;;3.54;100.00;97125.66;5075931;28;20212;-73
2021/12/26 05:10:49;;;;;;;25.57;19.73;;;;;;;3.52;100.00;97118.97;5076353;28;20619;-72
2021/12/26 05:13:16;;;;;;;25.10;19.30;;;;;;;3.56;100.00;97114.91;5076569;28;20205;-73
2021/12/26 05:15:43;;;;;;;26.77;19.73;;;;;;;3.54;100.00;97116.94;5076546;28;20220;-72
2021/12/26 05:18:09;;;;;;;24.50;18.77;;;;;;;3.54;100.00;97109.88;5076384;28;20295;-68
2021/12/26 05:20:36;;;;;;;25.83;18.70;;;;;;;3.49;100.00;97119.38;5076470;28;20212;-69
2021/12/26 05:23:04;;;;;;;23.77;18.40;;;;;;;3.48;100.00;97115.91;5076740;28;20203;-68
2021/12/26 05:25:30;;;;;;;26.70;19.33;;;;;;;3.50;100.00;97111.28;5076628;28;20247;-68
2021/12/26 05:27:58;;;;;;;28.87;20.00;;;;;;;3.50;100.00;97116.53;5076600;28;20204;-68
2021/12/26 05:30:26;;;;;;;24.63;19.93;;;;;;;3.55;100.00;97113.31;5076364;28;20506;-68
2021/12/26 05:32:53;;;;;;;25.80;19.10;;;;;;;3.58;100.00;97110.28;5076638;28;20212;-68
2021/12/26 05:35:20;;;;;;;27.13;18.90;;;;;;;3.53;100.00;97116.13;5076560;28;20228;-68
2021/12/26 05:37:47;;;;;;;25.03;19.77;;;;;;;3.57;100.00;97117.34;5076594;28;20192;-69
2021/12/26 05:40:16;;;;;;;25.23;18.93;;;;;;;3.65;100.00;97101.41;5076583;28;20592;-68
2021/12/26 05:42:43;;;;;;;24.77;19.00;;;;;;;3.70;100.00;97114.78;5076237;28;20294;-68
2021/12/26 05:45:11;;;;;;;25.27;18.83;;;;;;;3.69;100.00;97102.66;5076093;28;20647;-71
2021/12/26 05:47:38;;;;;;;26.47;19.23;;;;;;;3.67;100.00;97111.75;5076562;28;20210;-71
2021/12/26 05:50:06;;;;;;;26.03;19.17;;;;;;;3.68;100.00;97111.53;5076416;28;20224;-72
2021/12/26 05:52:33;;;;;;;25.47;18.63;;;;;;;3.66;100.00;97108.28;5076130;28;20599;-71
2021/12/26 05:54:59;;;;;;;22.67;19.03;;;;;;;3.65;100.00;97105.84;5076372;28;20220;-72
2021/12/26 05:57:26;;;;;;;24.93;19.13;;;;;;;3.68;100.00;97102.84;5076423;28;20207;-71
2021/12/26 05:59:52;;;;;;;25.70;19.27;;;;;;;3.67;100.00;97103.84;5076416;28;20197;-68
2021/12/26 06:02:19;;;;;;;25.37;18.70;;;;;;;3.71;100.00;97105.06;5076093;28;20638;-71
2021/12/26 06:04:46;;;;;;;23.80;18.13;;;;;;;3.75;100.00;97101.03;5076322;28;20205;-73
2021/12/26 06:07:12;;;;;;;22.50;17.60;;;;;;;3.69;100.00;97107.06;5076308;28;20515;-73
2021/12/26 06:09:38;;;;;;;23.97;17.97;;;;;;;3.76;100.00;97107.91;5076201;28;20220;-72
2021/12/26 06:12:05;;;;;;;23.50;17.90;;;;;;;3.74;100.00;97115.16;5076271;28;20200;-72
2021/12/26 06:14:32;;;;;;;25.20;18.20;;;;;;;3.73;100.00;97103.88;5076240;28;20192;-73
2021/12/26 06:16:58;;;;;;;26.23;19.60;;;;;;;3.70;100.00;97103.47;5075894;28;20204;-73
2021/12/26 06:19:24;;;;;;;25.73;18.17;;;;;;;3.73;100.00;97103.03;5077631;28;20196;-73
2021/12/26 06:21:51;;;;;;;27.80;18.90;;;;;;;3.69;100.00;97104.44;5080136;28;20200;-72
2021/12/26 06:24:17;;;;;;;28.47;19.83;;;;;;;3.67;100.00;97102.00;5080077;28;20211;-71
2021/12/26 06:26:46;;;;;;;25.17;18.20;;;;;;;3.68;100.00;97097.56;5080049;28;20231;-71
2021/12/26 06:29:12;;;;;;;26.97;20.20;;;;;;;3.79;100.00;97102.28;5079634;28;20649;-71
2021/12/26 06:31:39;;;;;;;25.60;18.47;;;;;;;3.72;100.00;97102.25;5079636;28;20616;-71
2021/12/26 06:34:05;;;;;;;22.43;18.23;;;;;;;3.75;100.00;97107.09;5079963;28;20200;-71
2021/12/26 06:36:32;;;;;;;26.83;19.60;;;;;;;3.78;100.00;97105.88;5079739;28;20524;-73
2021/12/26 06:38:58;;;;;;;22.67;17.47;;;;;;;3.99;100.00;97108.34;5079706;28;20197;-72
2021/12/26 06:41:26;;;;;;;23.57;19.37;;;;;;;3.85;100.00;97110.13;5079513;28;20217;-72
2021/12/26 06:43:53;;;;;;;27.07;19.70;;;;;;;3.77;100.00;97107.72;5079704;28;20289;-71
2021/12/26 06:46:19;;;;;;;24.13;18.57;;;;;;;3.75;100.00;97112.34;5079587;28;20225;-71
2021/12/26 06:48:46;;;;;;;24.60;19.10;;;;;;;3.78;100.00;97114.59;5079273;28;20247;-71
2021/12/26 06:51:12;;;;;;;25.17;19.03;;;;;;;3.71;100.00;97119.00;5079550;28;20207;-71
2021/12/26 06:53:39;;;;;;;26.40;19.37;;;;;;;3.68;100.00;97122.06;5079179;28;20193;-73
2021/12/26 06:56:06;;;;;;;24.67;18.67;;;;;;;3.76;100.00;97118.44;5078967;28;20231;-73
2021/12/26 06:58:33;;;;;;;27.63;19.27;;;;;;;3.78;100.00;97130.38;5079039;28;20203;-71
2021/12/26 07:01:00;;;;;;;24.80;19.30;;;;;;;3.87;100.00;97117.84;5079345;28;20204;-73
2021/12/26 07:03:26;;;;;;;26.17;18.47;;;;;;;3.79;100.00;97124.09;5079321;28;20209;-73
2021/12/26 07:05:52;;;;;;;26.13;18.20;;;;;;;3.78;100.00;97132.16;5079236;28;20220;-73
2021/12/26 07:08:19;;;;;;;29.13;20.00;;;;;;;3.73;100.00;97126.69;5079219;28;20204;-73
2021/12/26 07:10:45;;;;;;;25.93;19.93;;;;;;;3.77;100.00;97131.38;5079778;28;20207;-73
2021/12/26 07:13:11;;;;;;;26.97;19.60;;;;;;;3.75;100.00;97136.00;5079174;28;20211;-73
2021/12/26 07:15:38;;;;;;;27.90;19.63;;;;;;;3.80;100.00;97130.16;5079035;28;20217;-72
2021/12/26 07:18:04;;;;;;;25.93;19.53;;;;;;;3.82;100.00;97122.88;5079056;28;20201;-72
2021/12/26 07:20:31;;;;;;;27.00;19.93;;;;;;;3.89;100.00;97135.03;5078933;28;20200;-72
2021/12/26 07:22:57;;;;;;;24.03;18.23;;;;;;;3.91;100.00;97129.56;5079020;28;20197;-72
2021/12/26 07:25:24;;;;;;;27.50;18.60;;;;;;;3.87;100.00;97133.59;5078899;28;20221;-68
2021/12/26 07:27:50;;;;;;;26.83;19.20;;;;;;;3.90;100.00;97135.84;5078677;28;20638;-71
2021/12/26 07:30:17;;;;;;;25.10;18.40;;;;;;;3.94;100.00;97137.06;5078536;28;20224;-71
2021/12/26 07:32:43;;;;;;;25.43;18.40;;;;;;;3.94;100.00;97142.31;5079050;28;20201;-71
2021/12/26 07:35:10;;;;;;;25.77;18.17;;;;;;;3.89;100.00;97139.50;5078763;28;20228;-71
2021/12/26 07:37:37;;;;;;;24.33;18.63;;;;;;;3.93;100.00;97140.72;5078764;28;20256;-71
2021/12/26 07:40:05;;;;;;;23.40;17.37;;;;;;;3.97;100.00;97139.31;5078725;28;20197;-71
2021/12/26 07:42:31;;;;;;;22.13;16.63;;;;;;;3.95;100.00;97138.69;5078251;28;20218;-71
2021/12/26 07:44:58;;;;;;;21.97;16.60;;;;;;;4.06;100.00;97152.06;5078575;28;20301;-71
2021/12/26 07:47:24;;;;;;;22.27;16.33;;;;;;;4.05;100.00;97153.06;5078632;28;20212;-73
2021/12/26 07:49:51;;;;;;;20.17;15.17;;;;;;;4.05;100.00;97155.69;5078396;28;20225;-73
2021/12/26 07:52:21;;;;;;;20.97;16.17;;;;;;;4.08;100.00;97154.50;5078392;28;20196;-72
2021/12/26 07:54:48;;;;;;;23.03;16.07;;;;;;;4.13;100.00;97160.78;5078106;28;20185;-71
2021/12/26 07:57:15;;;;;;;21.63;16.77;;;;;;;4.19;100.00;97159.97;5078442;28;20201;-71
2021/12/26 07:59:41;;;;;;;20.37;16.03;;;;;;;4.18;100.00;97149.63;5078073;28;20595;-71
2021/12/26 08:02:08;;;;;;;21.77;17.07;;;;;;;4.20;100.00;97156.31;5078292;28;20226;-72
2021/12/26 08:04:34;;;;;;;22.37;16.70;;;;;;;4.17;100.00;97159.38;5078163;28;20211;-69
2021/12/26 08:07:01;;;;;;;22.33;17.03;;;;;;;4.29;100.00;97162.22;5077896;28;20515;-69
2021/12/26 08:09:27;;;;;;;24.83;18.13;;;;;;;4.24;100.00;97160.16;5077954;28;20223;-71
2021/12/26 08:11:54;;;;;;;23.50;18.57;;;;;;;4.22;100.00;97151.69;5077857;28;20208;-70
2021/12/26 08:14:20;;;;;;;24.67;17.33;;;;;;;4.27;100.00;97162.41;5077965;28;20204;-70
2021/12/26 08:16:48;;;;;;;25.13;18.17;;;;;;;4.35;100.00;97161.41;5077845;28;20221;-70
2021/12/26 08:19:14;;;;;;;22.10;17.27;;;;;;;4.33;100.00;97153.69;5077651;28;20220;-69
2021/12/26 08:21:40;;;;;;;23.47;18.57;;;;;;;4.36;100.00;97161.22;5077723;28;20200;-70
2021/12/26 08:24:07;;;;;;;25.93;18.87;;;;;;;4.31;100.00;97160.19;5077659;28;20211;-70
2021/12/26 08:26:33;;;;;;;21.27;15.77;;;;;;;4.49;100.00;97165.66;5077641;28;20520;-70
2021/12/26 08:29:00;;;;;;;19.57;15.20;;;;;;;4.58;100.00;97170.53;5077703;28;20523;-67
2021/12/26 08:31:28;;;;;;;20.07;15.93;;;;;;;4.49;100.00;97163.03;5077648;28;20197;-67
2021/12/26 08:33:54;;;;;;;18.87;15.47;;;;;;;4.37;100.00;97164.63;5077599;28;20196;-67
2021/12/26 08:36:21;;;;;;;20.23;15.93;;;;;;;4.45;100.00;97162.63;5077384;28;20220;-69
2021/12/26 08:38:49;;;;;;;20.27;15.97;;;;;;;4.52;100.00;97166.06;5077461;28;20223;-70
2021/12/26 08:41:15;;;;;;;23.57;17.27;;;;;;;4.51;100.00;97166.25;5077134;28;20299;-70
2021/12/26 08:43:43;;;;;;;23.97;17.20;;;;;;;4.54;100.00;97161.41;5076423;28;20201;-70
2021/12/26 08:46:11;;;;;;;20.77;16.20;;;;;;;4.54;100.00;97165.84;5076956;28;20701;-70
2021/12/26 08:48:38;;;;;;;24.27;17.57;;;;;;;4.56;100.00;97159.38;5077084;28;20616;-67
2021/12/26 08:51:04;;;;;;;21.53;17.30;;;;;;;4.60;100.00;97159.78;5077162;28;20216;-67
2021/12/26 08:53:31;;;;;;;20.00;15.87;;;;;;;4.58;100.00;97165.25;5077151;28;20204;-71
2021/12/26 08:55:59;;;;;;;19.33;16.13;;;;;;;4.60;100.00;97165.03;5077136;28;20227;-67
2021/12/26 08:58:26;;;;;;;22.87;16.73;;;;;;;4.62;100.00;97161.19;5077074;28;20515;-71
2021/12/26 09:00:52;;;;;;;21.77;17.03;;;;;;;4.66;100.00;97172.13;5077079;28;20208;-71
2021/12/26 09:03:18;;;;;;;24.40;17.53;;;;;;;4.74;100.00;97162.19;5077032;28;20191;-67
2021/12/26 09:05:45;;;;;;;20.50;17.37;;;;;;;4.65;100.00;97167.91;5076959;28;20225;-71
2021/12/26 09:08:12;;;;;;;21.90;17.40;;;;;;;4.72;100.00;97163.41;5076916;28;20201;-70
2021/12/26 09:10:40;;;;;;;20.73;16.27;;;;;;;4.79;100.00;97174.75;5076766;28;20228;-70
2021/12/26 09:13:07;;;;;;;23.03;17.33;;;;;;;4.89;100.00;97170.69;5077432;28;20200;-70
2021/12/26 09:15:34;;;;;;;21.60;16.73;;;;;;;4.79;100.00;97175.56;5076767;28;20228;-71
2021/12/26 09:18:01;;;;;;;21.07;17.17;;;;;;;4.82;100.00;97176.97;5076476;28;20204;-67
2021/12/26 09:20:27;;;;;;;23.43;18.37;;;;;;;4.97;100.00;97175.75;5076823;28;20188;-67
2021/12/26 09:22:54;;;;;;;24.00;17.37;;;;;;;4.95;100.00;97177.78;5076634;28;20204;-67
2021/12/26 09:25:21;;;;;;;20.47;16.20;;;;;;;5.01;100.00;97178.75;5076636;28;20220;-71
2021/12/26 09:27:47;;;;;;;22.97;17.47;;;;;;;5.00;100.00;97179.78;5076639;28;20253;-71
2021/12/26 09:30:15;;;;;;;22.23;18.03;;;;;;;4.99;100.00;97181.63;5076549;28;20243;-70
2021/12/26 09:32:43;;;;;;;20.87;17.27;;;;;;;4.94;100.00;97180.63;5076575;28;20200;-71
2021/12/26 09:35:10;;;;;;;21.10;16.87;;;;;;;4.97;100.00;97181.00;5076443;28;20290;-70
2021/12/26 09:37:36;;;;;;;22.70;17.07;;;;;;;5.16;100.00;97182.00;5076497;28;20207;-69
2021/12/26 09:40:04;;;;;;;21.17;17.27;;;;;;;5.22;100.00;97189.88;5076205;28;20581;-67
2021/12/26 09:42:33;;;;;;;24.03;17.93;;;;;;;5.18;100.00;97186.03;5076143;28;20208;-70
2021/12/26 09:45:00;;;;;;;21.00;16.90;;;;;;;5.24;100.00;97190.47;5076405;28;20300;-69
2021/12/26 09:47:26;;;;;;;23.13;18.20;;;;;;;5.22;100.00;97189.88;5076438;28;20201;-70
2021/12/26 09:49:53;;;;;;;21.77;17.07;;;;;;;5.38;100.00;97186.00;5076400;28;20244;-70
2021/12/26 09:52:19;;;;;;;20.87;16.93;;;;;;;5.34;100.00;97185.59;5076416;28;20201;-70
2021/12/26 09:54:46;;;;;;;20.77;16.83;;;;;;;5.34;100.00;97180.31;5076031;28;20210;-70
2021/12/26 09:57:13;;;;;;;19.67;16.87;;;;;;;5.38;100.00;97183.38;5076027;28;20608;-71
2021/12/26 09:59:43;;;;;;;22.43;17.47;;;;;;;5.40;100.00;97178.69;5076305;28;20207;-70
2021/12/26 10:02:13;;;;;;;19.87;16.43;;;;;;;5.50;100.00;97174.59;5076224;28;20200;-68
2021/12/26 10:04:41;;;;;;;22.67;16.43;;;;;;;5.35;100.00;97174.06;5076141;28;20189;-68
2021/12/26 10:07:11;;;;;;;21.27;17.33;;;;;;;5.42;100.00;97166.13;5076168;28;20204;-67
2021/12/26 10:09:42;;;;;;;24.27;18.67;;;;;;;5.52;100.00;97163.84;5075901;28;20248;-67
2021/12/26 10:12:12;;;;;;;21.50;17.47;;;;;;;5.52;100.00;97158.59;5076158;28;20499;-67
2021/12/26 10:14:39;;;;;;;23.03;18.53;;;;;;;5.57;100.00;97159.53;5076051;28;20284;-67
2021/12/26 10:17:17;;;;;;;21.57;18.40;;;;;;;5.64;100.00;97154.25;5076814;28;20250;-71
2021/12/26 10:19:47;;;;;;;21.77;17.90;;;;;;;5.57;100.00;97148.22;5075823;28;20275;-70
2021/12/26 10:22:17;;;;;;;23.93;18.60;;;;;;;5.64;100.00;97139.25;5075976;28;20205;-71
2021/12/26 10:24:46;;;;;;;23.00;17.77;;;;;;;5.76;100.00;97139.41;5075843;28;20228;-71
2021/12/26 10:27:16;;;;;;;21.93;17.33;;;;;;;5.67;100.00;97143.28;5076379;28;20497;-71
2021/12/26 10:29:44;;;;;;;21.63;17.20;;;;;;;5.68;100.00;97137.00;5075840;28;20223;-71
2021/12/26 10:32:22;;;;;;;22.40;17.70;;;;;;;5.77;100.00;97141.00;5075920;28;20192;-69
2021/12/26 10:35:00;;;;;;;21.17;17.23;;;;;;;5.95;100.00;97130.59;5076412;28;20199;-70
2021/12/26 10:37:38;;;;;;;19.20;17.07;;;;;;;6.06;100.00;97130.72;5075965;28;20203;-70
2021/12/26 10:40:10;;;;;;;19.00;15.20;;;;;;;5.98;100.00;97127.53;5075748;28;20499;-70
2021/12/26 10:42:39;;;;;;;19.00;14.97;;;;;;;6.11;100.00;97135.38;5075327;28;20216;-70
2021/12/26 10:45:12;;;;;;;15.30;13.03;;;;;;;6.09;100.00;97132.13;5075449;28;20651;-70
2021/12/26 10:47:41;;;;;;;15.87;13.83;;;;;;;6.02;100.00;97136.66;5075941;28;20189;-72
2021/12/26 10:50:13;;;;;;;14.23;12.47;;;;;;;5.97;100.00;97126.72;5075461;28;20624;-71
2021/12/26 10:52:42;;;;;;;14.10;12.33;;;;;;;6.04;100.00;97129.31;5075477;28;20579;-70
2021/12/26 10:55:11;;;;;;;12.97;11.67;;;;;;;6.05;100.00;97134.38;5075512;28;20232;-70
2021/12/26 10:57:43;;;;;;;12.43;11.13;;;;;;;6.24;100.00;97128.16;5075678;28;20212;-70
2021/12/26 11:00:21;;;;;;;12.63;11.37;;;;;;;6.33;100.00;97134.78;5075996;28;20196;-71
2021/12/26 11:02:57;;;;;;;11.93;10.73;;;;;;;6.35;100.00;97130.13;5075492;28;20189;-72
2021/12/26 11:05:33;;;;;;;11.87;10.60;;;;;;;6.32;100.00;97127.09;5075527;28;20228;-71
2021/12/26 11:08:10;;;;;;;10.40;9.33;;;;;;;6.28;100.00;97124.06;5079160;28;20192;-72
2021/12/26 11:10:58;;;;;;;10.57;9.47;;;;;;;6.30;100.00;97119.41;5078666;28;20204;-72
2021/12/26 11:13:27;;;;;;;11.60;10.20;;;;;;;6.50;100.00;97116.59;5079154;28;20204;-71
2021/12/26 11:16:06;;;;;;;10.07;9.03;;;;;;;6.45;100.00;97108.50;5078980;28;20224;-70
2021/12/26 11:18:34;;;;;;;10.40;9.40;;;;;;;6.42;100.00;97112.38;5078979;28;20593;-70
2021/12/26 11:21:06;;;;;;;11.30;10.00;;;;;;;6.44;100.00;97113.00;5078832;28;20266;-72
2021/12/26 11:23:35;;;;;;;11.17;9.97;;;;;;;6.50;100.00;97120.03;5078366;28;20607;-70